createdAt,value
2019-02-10T00:00:35.530Z,9.60
2019-02-10T00:03:02.137Z,9.60
2019-02-10T00:05:28.883Z,9.50
2019-02-10T00:07:55.724Z,9.70
2019-02-10T00:10:22.658Z,9.70
2019-02-10T00:12:49.524Z,9.60
2019-02-10T00:15:17.448Z,9.60
2019-02-10T00:17:44.056Z,9.70
2019-02-10T00:20:10.700Z,9.60
2019-02-10T00:22:37.372Z,9.60
2019-02-10T00:25:04.231Z,9.60
2019-02-10T00:27:31.044Z,9.60
2019-02-10T00:29:58.106Z,9.60
2019-02-10T00:32:24.936Z,9.70
2019-02-10T00:34:54.719Z,9.60
2019-02-10T00:37:21.464Z,9.60
2019-02-10T00:39:49.156Z,9.60
2019-02-10T00:42:15.751Z,9.60
2019-02-10T00:44:42.557Z,9.60
2019-02-10T00:47:09.271Z,9.60
2019-02-10T00:49:36.349Z,9.60
2019-02-10T00:52:02.950Z,9.60
2019-02-10T00:54:29.657Z,9.60
2019-02-10T00:56:56.336Z,9.60
2019-02-10T00:59:23.601Z,9.70
2019-02-10T01:01:51.394Z,9.60
2019-02-10T01:04:18.431Z,9.60
2019-02-10T01:06:45.167Z,9.60
2019-02-10T01:09:11.950Z,9.60
2019-02-10T01:11:39.843Z,9.60
2019-02-10T01:14:06.865Z,9.30
2019-02-10T01:16:33.517Z,9.60
2019-02-10T01:19:00.391Z,9.60
2019-02-10T01:21:27.092Z,9.60
2019-02-10T01:23:54.223Z,9.60
2019-02-10T01:26:21.037Z,9.60
2019-02-10T01:28:47.622Z,9.60
2019-02-10T01:31:14.511Z,9.60
2019-02-10T01:33:41.129Z,9.60
2019-02-10T01:36:07.766Z,9.60
2019-02-10T01:38:34.530Z,9.60
2019-02-10T01:43:40.478Z,9.40
2019-02-10T01:46:08.846Z,9.60
2019-02-10T01:48:35.505Z,9.60
2019-02-10T01:51:02.276Z,9.60
2019-02-10T01:53:29.006Z,9.60
2019-02-10T01:55:55.735Z,9.60
2019-02-10T01:58:23.128Z,9.60
2019-02-10T02:00:50.253Z,9.50
2019-02-10T02:03:17.115Z,9.60
2019-02-10T02:05:43.994Z,9.50
2019-02-10T02:08:10.908Z,9.50
2019-02-10T02:10:37.597Z,9.50
2019-02-10T02:13:04.176Z,9.30
2019-02-10T02:15:32.650Z,9.50
2019-02-10T02:17:59.281Z,9.20
2019-02-10T02:20:27.026Z,9.50
2019-02-10T02:22:53.662Z,9.50
2019-02-10T02:25:20.416Z,9.50
2019-02-10T02:27:47.149Z,9.50
2019-02-10T02:30:13.924Z,9.50
2019-02-10T02:32:40.571Z,9.50
2019-02-10T02:35:09.108Z,9.50
2019-02-10T02:37:35.739Z,9.50
2019-02-10T02:40:02.454Z,9.40
2019-02-10T02:42:29.388Z,9.40
2019-02-10T02:44:56.117Z,9.40
2019-02-10T02:47:23.157Z,9.40
2019-02-10T02:49:49.714Z,9.40
2019-02-10T02:52:16.491Z,9.40
2019-02-10T02:54:43.139Z,9.40
2019-02-10T02:57:10.765Z,9.40
2019-02-10T02:59:37.607Z,9.40
2019-02-10T03:02:04.413Z,9.40
2019-02-10T03:04:33.653Z,9.40
2019-02-10T03:07:02.346Z,9.40
2019-02-10T03:09:30.272Z,9.40
2019-02-10T03:11:57.243Z,9.40
2019-02-10T03:14:23.971Z,9.40
2019-02-10T03:16:50.699Z,9.40
2019-02-10T03:19:17.362Z,9.40
2019-02-10T03:21:44.202Z,9.40
2019-02-10T03:24:10.879Z,9.30
2019-02-10T03:26:37.651Z,9.30
2019-02-10T03:29:04.507Z,9.30
2019-02-10T03:31:31.570Z,9.30
2019-02-10T03:33:58.659Z,9.30
2019-02-10T03:36:25.421Z,9.30
2019-02-10T03:38:53.186Z,9.30
2019-02-10T03:41:19.975Z,9.30
2019-02-10T03:43:46.689Z,9.30
2019-02-10T03:46:13.328Z,9.30
2019-02-10T03:48:40.057Z,9.30
2019-02-10T03:51:06.785Z,9.30
2019-02-10T03:53:33.452Z,9.30
2019-02-10T03:56:00.025Z,9.40
2019-02-10T04:01:05.972Z,9.20
2019-02-10T04:03:32.556Z,9.30
2019-02-10T04:05:59.325Z,9.30
2019-02-10T04:08:26.012Z,9.40
2019-02-10T04:10:52.996Z,9.40
2019-02-10T04:13:19.869Z,9.40
2019-02-10T04:15:48.560Z,9.40
2019-02-10T04:18:15.428Z,9.40
2019-02-10T04:20:42.400Z,9.40
2019-02-10T04:23:10.129Z,9.40
2019-02-10T04:25:38.333Z,9.40
2019-02-10T04:28:05.036Z,9.40
2019-02-10T04:30:33.774Z,9.40
2019-02-10T04:33:02.148Z,9.40
2019-02-10T04:35:33.635Z,9.40
2019-02-10T04:38:00.646Z,9.40
2019-02-10T04:40:30.550Z,9.40
2019-02-10T04:42:57.258Z,9.40
2019-02-10T04:45:23.982Z,9.50
2019-02-10T04:47:51.048Z,9.50
2019-02-10T04:50:18.258Z,9.50
2019-02-10T04:52:48.663Z,9.50
2019-02-10T04:55:15.800Z,9.50
2019-02-10T04:57:44.383Z,9.50
2019-02-10T05:00:14.522Z,9.20
2019-02-10T05:02:41.457Z,9.50
2019-02-10T05:05:08.129Z,9.50
2019-02-10T05:07:34.937Z,9.60
2019-02-10T05:10:02.745Z,9.50
2019-02-10T05:12:29.858Z,9.60
2019-02-10T05:14:56.792Z,9.60
2019-02-10T05:17:23.483Z,9.60
2019-02-10T05:19:50.596Z,9.60
2019-02-10T05:22:17.409Z,9.60
2019-02-10T05:24:44.177Z,9.60
2019-02-10T05:27:10.730Z,9.60
2019-02-10T05:29:38.579Z,9.60
2019-02-10T05:32:05.259Z,9.60
2019-02-10T05:34:31.986Z,9.60
2019-02-10T05:37:00.495Z,9.60
2019-02-10T05:39:27.196Z,9.60
2019-02-10T05:41:53.865Z,9.60
2019-02-10T05:44:21.183Z,9.60
2019-02-10T05:46:48.278Z,9.70
2019-02-10T05:49:16.211Z,9.70
2019-02-10T05:51:44.117Z,9.70
2019-02-10T05:54:10.808Z,9.70
2019-02-10T05:56:37.811Z,9.70
2019-02-10T05:59:07.194Z,9.20
2019-02-10T06:01:33.839Z,9.70
2019-02-10T06:04:00.415Z,9.70
2019-02-10T06:06:27.087Z,9.70
2019-02-10T06:08:54.051Z,9.70
2019-02-10T06:11:20.877Z,9.70
2019-02-10T06:13:47.527Z,9.70
2019-02-10T06:16:14.248Z,9.70
2019-02-10T06:18:41.005Z,9.80
2019-02-10T06:21:07.659Z,9.80
2019-02-10T06:23:34.367Z,9.80
2019-02-10T06:26:01.111Z,9.80
2019-02-10T06:28:27.818Z,9.80
2019-02-10T06:30:55.785Z,9.80
2019-02-10T06:33:23.681Z,9.80
2019-02-10T06:35:50.467Z,9.80
2019-02-10T06:38:22.543Z,9.80
2019-02-10T06:40:50.342Z,9.80
2019-02-10T06:43:17.354Z,9.80
2019-02-10T06:45:44.130Z,9.80
2019-02-10T06:48:10.814Z,9.80
2019-02-10T06:50:37.974Z,9.90
2019-02-10T06:53:07.554Z,9.80
2019-02-10T06:55:40.945Z,9.90
2019-02-10T06:58:09.084Z,9.70
2019-02-10T07:00:42.538Z,9.90
2019-02-10T07:03:14.328Z,9.90
2019-02-10T07:05:41.348Z,9.90
2019-02-10T07:08:10.114Z,9.90
2019-02-10T07:10:37.235Z,9.90
2019-02-10T07:13:03.994Z,9.90
2019-02-10T07:15:31.107Z,9.90
2019-02-10T07:17:57.946Z,9.90
2019-02-10T07:20:24.857Z,9.90
2019-02-10T07:22:51.686Z,9.90
2019-02-10T07:25:19.453Z,9.90
2019-02-10T07:27:48.058Z,9.90
2019-02-10T07:30:14.790Z,10.10
2019-02-10T07:32:44.242Z,9.90
2019-02-10T07:35:10.961Z,9.90
2019-02-10T07:37:37.759Z,9.90
2019-02-10T07:40:04.610Z,9.90
2019-02-10T07:42:31.376Z,9.90
2019-02-10T07:44:58.031Z,9.90
2019-02-10T07:47:26.121Z,9.90
2019-02-10T07:49:54.054Z,10.00
2019-02-10T07:52:20.978Z,9.60
2019-02-10T07:54:47.737Z,10.00
2019-02-10T07:57:18.197Z,10.00
2019-02-10T07:59:45.120Z,10.00
2019-02-10T08:02:13.287Z,10.00
2019-02-10T08:04:40.349Z,10.10
2019-02-10T08:07:07.195Z,10.00
2019-02-10T08:09:33.920Z,10.00
2019-02-10T08:12:01.675Z,10.00
2019-02-10T08:14:28.430Z,10.00
2019-02-10T08:16:55.093Z,10.00
2019-02-10T08:19:21.914Z,10.00
2019-02-10T08:21:48.677Z,10.00
2019-02-10T08:24:17.503Z,10.00
2019-02-10T08:26:48.055Z,10.00
2019-02-10T08:29:15.131Z,10.00
2019-02-10T08:31:41.874Z,10.00
2019-02-10T08:34:10.421Z,10.00
2019-02-10T08:36:37.429Z,10.00
2019-02-10T08:39:04.913Z,9.90
2019-02-10T08:41:31.802Z,9.90
2019-02-10T08:43:58.953Z,9.90
2019-02-10T08:46:25.787Z,9.90
2019-02-10T08:48:52.675Z,9.90
2019-02-10T08:51:21.211Z,9.90
2019-02-10T08:53:48.039Z,9.90
2019-02-10T08:56:14.799Z,9.90
2019-02-10T08:58:41.863Z,9.90
2019-02-10T09:01:08.641Z,9.90
2019-02-10T09:03:35.368Z,9.90
2019-02-10T09:06:02.186Z,9.90
2019-02-10T09:08:29.036Z,9.90
2019-02-10T09:10:55.775Z,9.90
2019-02-10T09:13:22.528Z,9.90
2019-02-10T09:15:49.365Z,9.90
2019-02-10T09:18:16.410Z,9.90
2019-02-10T09:20:44.902Z,9.90
2019-02-10T09:23:12.163Z,9.90
2019-02-10T09:25:40.754Z,9.90
2019-02-10T09:28:08.502Z,9.70
2019-02-10T09:30:35.258Z,9.90
2019-02-10T09:33:01.904Z,9.90
2019-02-10T09:35:29.724Z,9.80
2019-02-10T09:37:56.902Z,9.80
2019-02-10T09:40:23.637Z,9.80
2019-02-10T09:42:51.236Z,9.80
2019-02-10T09:45:19.029Z,9.80
2019-02-10T09:47:46.960Z,9.80
2019-02-10T09:50:13.628Z,9.80
2019-02-10T09:52:40.479Z,9.80
2019-02-10T09:55:07.485Z,9.80
2019-02-10T09:57:36.086Z,9.80
2019-02-10T10:00:02.993Z,9.80
2019-02-10T10:02:31.541Z,9.80
2019-02-10T10:04:58.340Z,9.80
2019-02-10T10:07:25.284Z,9.80
2019-02-10T10:09:52.430Z,9.80
2019-02-10T10:12:20.206Z,9.80
2019-02-10T10:14:48.501Z,9.80
2019-02-10T10:17:15.443Z,9.80
2019-02-10T10:19:42.459Z,9.80
2019-02-10T10:22:09.407Z,9.80
2019-02-10T10:24:37.569Z,9.80
2019-02-10T10:27:04.237Z,9.80
2019-02-10T10:29:32.867Z,9.80
2019-02-10T10:32:01.187Z,9.80
2019-02-10T10:34:27.962Z,9.80
2019-02-10T10:36:55.774Z,9.80
2019-02-10T10:39:27.430Z,9.80
2019-02-10T10:41:51.325Z,9.80
2019-02-10T10:44:18.103Z,9.80
2019-02-10T10:46:45.560Z,9.80
2019-02-10T10:49:14.230Z,9.80
2019-02-10T10:51:42.278Z,9.80
2019-02-10T10:54:09.146Z,9.80
2019-02-10T10:56:35.856Z,9.80
2019-02-10T10:59:02.822Z,9.80
2019-02-10T11:01:29.764Z,9.80
2019-02-10T11:03:56.521Z,9.80
2019-02-10T11:06:23.345Z,9.80
2019-02-10T11:08:50.061Z,9.80
2019-02-10T11:11:16.947Z,9.80
2019-02-10T11:13:43.787Z,9.80
2019-02-10T11:16:10.781Z,9.80
2019-02-10T11:18:37.571Z,9.80
2019-02-10T11:21:04.928Z,9.80
2019-02-10T11:23:31.606Z,9.80
2019-02-10T11:25:58.575Z,9.80
2019-02-10T11:28:25.444Z,9.80
2019-02-10T11:30:52.374Z,9.80
2019-02-10T11:33:19.022Z,9.80
2019-02-10T11:35:46.254Z,9.80
2019-02-10T11:38:12.890Z,9.80
2019-02-10T11:40:39.638Z,9.80
2019-02-10T11:43:06.521Z,9.80
2019-02-10T11:45:33.245Z,9.80
2019-02-10T11:48:02.774Z,9.80
2019-02-10T11:50:29.438Z,9.80
2019-02-10T11:52:56.336Z,9.80
2019-02-10T11:55:22.995Z,9.80
2019-02-10T11:57:51.502Z,10.00
2019-02-10T12:00:19.402Z,9.80
2019-02-10T12:02:46.132Z,9.80
2019-02-10T12:05:12.949Z,9.80
2019-02-10T12:07:40.120Z,9.80
2019-02-10T12:10:28.101Z,9.90
2019-02-10T12:12:54.695Z,9.90
2019-02-10T12:15:21.451Z,9.90
2019-02-10T12:17:48.308Z,9.80
2019-02-10T12:20:16.942Z,9.90
2019-02-10T12:22:49.849Z,9.90
2019-02-10T12:25:12.674Z,9.90
2019-02-10T12:27:39.510Z,9.90
2019-02-10T12:30:06.344Z,9.90
2019-02-10T12:32:34.430Z,9.90
2019-02-10T12:35:01.074Z,9.90
2019-02-10T12:37:32.421Z,9.90
2019-02-10T12:39:59.784Z,10.00
2019-02-10T12:42:24.995Z,9.90
2019-02-10T12:44:53.283Z,9.90
2019-02-10T12:47:20.329Z,9.90
2019-02-10T12:49:46.987Z,9.90
2019-02-10T12:52:14.087Z,9.90
2019-02-10T12:54:40.831Z,9.90
2019-02-10T12:57:07.641Z,9.90
2019-02-10T12:59:34.395Z,9.80
2019-02-10T13:02:01.090Z,9.90
2019-02-10T13:04:27.695Z,9.90
2019-02-10T13:06:54.833Z,9.90
2019-02-10T13:09:21.595Z,9.90
2019-02-10T13:11:58.047Z,9.80
2019-02-10T13:14:17.105Z,9.80
2019-02-10T13:16:43.744Z,9.80
2019-02-10T13:19:10.920Z,9.80
2019-02-10T13:21:37.890Z,9.80
2019-02-10T13:24:05.183Z,9.80
2019-02-10T13:26:31.931Z,9.80
2019-02-10T13:28:58.677Z,9.80
2019-02-10T13:31:25.541Z,9.80
2019-02-10T13:33:53.833Z,9.80
2019-02-10T13:36:20.675Z,9.80
2019-02-10T13:38:47.623Z,9.80
2019-02-10T13:41:14.449Z,9.80
2019-02-10T13:43:41.196Z,9.80
2019-02-10T13:46:08.845Z,9.80
2019-02-10T13:48:35.655Z,9.80
2019-02-10T13:51:02.501Z,9.80
2019-02-10T13:53:29.800Z,9.80
2019-02-10T13:55:58.298Z,9.80
2019-02-10T13:58:26.238Z,9.80
2019-02-10T14:00:54.781Z,9.80
2019-02-10T14:03:21.498Z,9.80
2019-02-10T14:05:48.157Z,9.80
2019-02-10T14:08:16.514Z,9.80
2019-02-10T14:10:43.644Z,9.80
2019-02-10T14:13:10.372Z,9.80
2019-02-10T14:15:37.231Z,9.80
2019-02-10T14:18:03.752Z,9.80
2019-02-10T14:20:30.384Z,9.80
2019-02-10T14:22:57.468Z,9.80
2019-02-10T14:25:24.238Z,9.70
2019-02-10T14:27:51.116Z,9.70
2019-02-10T14:30:17.798Z,9.70
2019-02-10T14:32:49.196Z,9.70
2019-02-10T14:35:16.123Z,9.70
2019-02-10T14:37:43.062Z,9.70
2019-02-10T14:40:09.857Z,9.40
2019-02-10T14:42:36.632Z,9.70
2019-02-10T14:45:04.626Z,9.70
2019-02-10T14:47:32.453Z,9.70
2019-02-10T14:49:59.252Z,9.80
2019-02-10T14:52:26.155Z,9.70
2019-02-10T14:57:33.177Z,9.60
2019-02-10T14:59:59.915Z,9.70
2019-02-10T15:02:26.617Z,9.70
2019-02-10T15:04:54.131Z,9.70
2019-02-10T15:07:25.118Z,9.70
2019-02-10T15:09:51.313Z,9.70
2019-02-10T15:12:18.102Z,9.70
2019-02-10T15:14:44.761Z,9.70
2019-02-10T15:17:11.488Z,9.70
2019-02-10T15:19:38.367Z,9.70
2019-02-10T15:22:05.263Z,9.70
2019-02-10T15:24:32.215Z,9.70
2019-02-10T15:26:59.640Z,9.70
2019-02-10T15:29:26.714Z,9.60
2019-02-10T15:31:53.768Z,9.60
2019-02-10T15:34:20.427Z,9.60
2019-02-10T15:36:47.207Z,9.70
2019-02-10T15:39:14.214Z,9.60
2019-02-10T15:41:41.449Z,9.60
2019-02-10T15:44:09.358Z,9.40
2019-02-10T15:46:36.125Z,9.60
2019-02-10T15:49:02.867Z,9.60
2019-02-10T15:51:36.981Z,9.60
2019-02-10T15:53:58.740Z,9.60
2019-02-10T15:56:25.366Z,9.60
2019-02-10T15:58:52.173Z,9.50
2019-02-10T16:01:19.173Z,9.50
2019-02-10T16:03:46.566Z,9.50
2019-02-10T16:06:14.089Z,9.50
2019-02-10T16:08:41.236Z,9.50
2019-02-10T16:11:07.947Z,9.50
2019-02-10T16:13:34.806Z,9.50
2019-02-10T16:16:01.680Z,9.50
2019-02-10T16:18:28.610Z,9.50
2019-02-10T16:20:55.241Z,9.40
2019-02-10T16:23:22.297Z,9.40
2019-02-10T16:25:50.722Z,9.40
2019-02-10T16:28:17.643Z,9.40
2019-02-10T16:30:44.800Z,9.40
2019-02-10T16:33:12.866Z,9.40
2019-02-10T16:35:41.458Z,9.40
2019-02-10T16:38:08.134Z,8.90
2019-02-10T16:40:36.504Z,9.30
2019-02-10T16:43:04.333Z,9.30
2019-02-10T16:45:31.090Z,9.30
2019-02-10T16:47:58.204Z,9.30
2019-02-10T16:50:26.618Z,9.30
2019-02-10T16:52:54.674Z,9.30
2019-02-10T16:55:21.634Z,9.20
2019-02-10T16:57:48.422Z,9.20
2019-02-10T17:00:15.050Z,9.20
2019-02-10T17:02:41.695Z,9.20
2019-02-10T17:05:08.506Z,9.20
2019-02-10T17:07:35.442Z,9.20
2019-02-10T17:10:02.496Z,9.20
2019-02-10T17:12:31.122Z,9.10
2019-02-10T17:14:59.032Z,9.10
2019-02-10T17:17:25.808Z,9.10
2019-02-10T17:19:52.812Z,9.10
2019-02-10T17:22:23.936Z,9.10
2019-02-10T17:24:50.826Z,9.10
2019-02-10T17:27:17.884Z,9.00
2019-02-10T17:29:44.779Z,9.00
2019-02-10T17:32:11.461Z,9.00
2019-02-10T17:34:38.220Z,9.00
2019-02-10T17:37:06.248Z,9.00
2019-02-10T17:39:33.339Z,9.00
2019-02-10T17:42:00.491Z,8.90
2019-02-10T17:44:28.474Z,8.90
2019-02-10T17:46:55.153Z,8.90
2019-02-10T17:49:21.915Z,8.90
2019-02-10T17:51:48.509Z,8.90
2019-02-10T17:54:15.147Z,8.90
2019-02-10T17:56:42.013Z,8.90
2019-02-10T17:59:08.839Z,8.80
2019-02-10T18:01:35.932Z,8.90
2019-02-10T18:04:02.580Z,8.80
2019-02-10T18:06:30.521Z,8.80
2019-02-10T18:08:57.267Z,8.80
2019-02-10T18:11:30.868Z,8.80
2019-02-10T18:13:52.807Z,8.80
2019-02-10T18:16:35.215Z,8.80
2019-02-10T18:19:11.806Z,8.80
2019-02-10T18:22:04.365Z,8.70
2019-02-10T18:24:50.820Z,8.80
2019-02-10T18:27:52.134Z,8.70
2019-02-10T18:30:30.462Z,8.70
2019-02-10T18:33:14.577Z,8.70
2019-02-10T18:35:58.467Z,8.70
2019-02-10T18:38:50.399Z,8.70
2019-02-10T18:41:39.799Z,8.70
2019-02-10T18:44:27.960Z,8.70
2019-02-10T18:47:19.448Z,8.70
2019-02-10T18:50:08.831Z,8.70
2019-02-10T18:53:07.296Z,8.70
2019-02-10T18:55:59.799Z,8.60
2019-02-10T18:59:04.329Z,8.60
2019-02-10T19:01:53.283Z,8.60
2019-02-10T19:07:13.853Z,8.50
2019-02-10T19:09:58.764Z,8.80
2019-02-10T19:12:36.639Z,8.60
2019-02-10T19:15:31.895Z,8.60
2019-02-10T19:18:26.877Z,8.60
2019-02-10T19:21:06.266Z,8.40
2019-02-10T19:23:52.373Z,8.60
2019-02-10T19:26:41.315Z,8.60
2019-02-10T19:29:36.714Z,8.50
2019-02-10T19:32:17.558Z,8.50
2019-02-10T19:35:14.592Z,8.50
2019-02-10T19:37:52.257Z,8.50
2019-02-10T19:40:35.917Z,8.50
2019-02-10T19:43:22.103Z,8.50
2019-02-10T19:46:08.607Z,8.50
2019-02-10T19:48:56.863Z,8.50
2019-02-10T19:51:45.166Z,8.50
2019-02-10T19:54:34.422Z,8.50
2019-02-10T19:57:17.419Z,8.50
2019-02-10T20:00:06.393Z,8.50
2019-02-10T20:02:51.394Z,8.50
2019-02-10T20:05:54.763Z,8.50
2019-02-10T20:08:34.749Z,8.50
2019-02-10T20:11:30.068Z,8.40
2019-02-10T20:14:22.687Z,8.40
2019-02-10T20:17:23.568Z,8.40
2019-02-10T20:20:23.870Z,8.40
2019-02-10T20:23:15.847Z,8.40
2019-02-10T20:26:11.687Z,8.40
2019-02-10T20:29:10.125Z,8.40
2019-02-10T20:31:54.987Z,8.40
2019-02-10T20:34:39.905Z,8.40
2019-02-10T20:37:46.336Z,8.40
2019-02-10T20:40:44.580Z,8.40
2019-02-10T20:43:30.765Z,8.40
2019-02-10T20:46:29.049Z,8.40
2019-02-10T20:49:15.165Z,8.40
2019-02-10T20:52:01.528Z,8.40
2019-02-10T20:54:52.561Z,8.40
2019-02-10T20:57:37.958Z,8.40
2019-02-10T21:00:22.740Z,8.40
2019-02-10T21:03:02.221Z,8.40
2019-02-10T21:05:45.990Z,8.40
2019-02-10T21:08:30.542Z,8.40
2019-02-10T21:11:13.753Z,8.40
2019-02-10T21:14:02.990Z,8.30
2019-02-10T21:16:57.776Z,8.20
2019-02-10T21:19:43.954Z,8.40
2019-02-10T21:22:24.813Z,8.40
2019-02-10T21:25:13.082Z,8.40
2019-02-10T21:27:55.516Z,8.40
2019-02-10T21:30:59.783Z,8.30
2019-02-10T21:33:51.806Z,8.40
2019-02-10T21:36:37.926Z,8.40
2019-02-10T21:39:39.254Z,8.30
2019-02-10T21:42:14.558Z,8.30
2019-02-10T21:45:03.695Z,8.30
2019-02-10T21:47:48.500Z,8.30
2019-02-10T21:50:15.643Z,8.30
2019-02-10T21:52:42.330Z,8.30
2019-02-10T21:55:09.185Z,8.30
2019-02-10T21:57:36.350Z,8.30
2019-02-10T22:00:03.356Z,8.00
2019-02-10T22:02:30.544Z,8.30
2019-02-10T22:04:57.477Z,8.30
2019-02-10T22:07:24.092Z,8.30
2019-02-10T22:09:52.609Z,8.30
2019-02-10T22:12:22.234Z,8.30
2019-02-10T22:14:50.419Z,8.30
2019-02-10T22:17:19.169Z,8.30
2019-02-10T22:19:47.646Z,8.30
2019-02-10T22:22:16.517Z,8.30
2019-02-10T22:24:45.254Z,8.30
2019-02-10T22:27:14.225Z,8.30
2019-02-10T22:29:42.782Z,8.30
2019-02-10T22:32:12.511Z,8.30
2019-02-10T22:34:39.933Z,8.30
2019-02-10T22:37:06.835Z,8.30
2019-02-10T22:39:33.596Z,8.30
2019-02-10T22:42:00.423Z,8.30
2019-02-10T22:44:27.371Z,8.30
2019-02-10T22:46:54.580Z,8.30
2019-02-10T22:49:21.414Z,8.30
2019-02-10T22:51:49.915Z,8.30
2019-02-10T22:54:20.009Z,8.30
2019-02-10T22:56:47.122Z,8.30
2019-02-10T22:59:13.842Z,8.30
2019-02-10T23:01:40.718Z,8.30
2019-02-10T23:04:07.439Z,8.30
2019-02-10T23:06:34.395Z,8.20
2019-02-10T23:09:01.325Z,8.20
2019-02-10T23:11:28.293Z,8.20
2019-02-10T23:13:55.212Z,8.20
2019-02-10T23:16:21.800Z,8.20
2019-02-10T23:18:48.566Z,8.30
2019-02-10T23:21:15.592Z,8.30
2019-02-10T23:23:42.599Z,8.20
2019-02-10T23:26:09.328Z,8.50
2019-02-10T23:28:36.284Z,8.20
2019-02-10T23:31:03.002Z,8.20
2019-02-10T23:33:29.728Z,8.20
2019-02-10T23:35:56.445Z,8.20
2019-02-10T23:38:23.248Z,8.20
2019-02-10T23:40:50.318Z,8.20
2019-02-10T23:43:17.230Z,8.20
2019-02-10T23:45:44.180Z,8.20
2019-02-10T23:48:10.746Z,8.20
2019-02-10T23:50:37.582Z,8.20
2019-02-10T23:53:04.358Z,8.20
2019-02-10T23:55:31.104Z,8.20
2019-02-10T23:57:57.818Z,8.10
